Time;durP1;ratioP1;P1;durP2;ratioP2;P2;SDS_P1;SDS_P2;PMS_P1;PMS_P2;Temp;Humidity;BMP_temperature;BMP_pressure;BME280_temperature;BME280_humidity;BME280_pressure;Samples;Min_cycle;Max_cycle;Signal;HPM_P1;HPM_P2
2020/12/29 00:02:24;;;;;;;4.85;2.47;;;;;;;;;;6307199;22;20506;-84
2020/12/29 00:04:51;;;;;;;4.47;2.22;;;;;;;;;;6307257;22;20023;-83
2020/12/29 00:07:17;;;;;;;6.85;2.20;;;;;;;;;;6306129;22;20029;-81
2020/12/29 00:09:43;;;;;;;3.33;2.25;;;;;;;;;;6306867;22;20376;-81
2020/12/29 00:12:09;;;;;;;4.78;2.15;;;;;;;;;;6305308;22;20607;-79
2020/12/29 00:14:35;;;;;;;5.55;1.98;;;;;;;;;;6304230;22;20125;-80
2020/12/29 00:17:02;;;;;;;3.33;1.63;;;;;;;;;;6303148;22;20025;-80
2020/12/29 00:19:28;;;;;;;4.75;2.17;;;;;;;;;;6305133;22;20027;-82
2020/12/29 00:21:54;;;;;;;5.00;2.15;;;;;;;;;;6305542;22;20395;-82
2020/12/29 00:24:20;;;;;;;3.50;2.05;;;;;;;;;;6306899;22;20023;-82
2020/12/29 00:27:00;;;;;;;6.28;2.28;;;;;;;;;;6309038;22;20026;-84
2020/12/29 00:29:26;;;;;;;3.67;1.70;;;;;;;;;;6307023;22;20120;-82
2020/12/29 00:31:52;;;;;;;4.28;2.10;;;;;;;;;;6306255;22;20102;-82
2020/12/29 00:34:18;;;;;;;4.30;1.80;;;;;;;;;;6305423;22;20015;-86
2020/12/29 00:36:45;;;;;;;3.88;1.67;;;;;;;;;;6305800;22;20046;-87
2020/12/29 00:39:11;;;;;;;4.40;1.90;;;;;;;;;;6307072;22;20101;-86
2020/12/29 00:41:38;;;;;;;5.10;2.00;;;;;;;;;;6304961;22;20030;-86
2020/12/29 00:44:04;;;;;;;2.47;1.17;;;;;;;;;;6305170;22;20455;-87
2020/12/29 00:46:30;;;;;;;4.10;1.88;;;;;;;;;;6306620;22;20024;-85
2020/12/29 00:48:56;;;;;;;2.85;1.52;;;;;;;;;;6305815;22;20015;-85
2020/12/29 00:51:23;;;;;;;3.05;1.40;;;;;;;;;;6306116;22;20489;-80
2020/12/29 00:53:49;;;;;;;2.75;1.30;;;;;;;;;;6304911;22;20019;-82
2020/12/29 00:56:15;;;;;;;3.03;1.80;;;;;;;;;;6305775;22;20023;-83
2020/12/29 00:58:42;;;;;;;2.70;1.38;;;;;;;;;;6304971;22;20019;-83
2020/12/29 01:01:08;;;;;;;3.20;1.60;;;;;;;;;;6306297;22;20019;-85
2020/12/29 01:03:37;;;;;;;3.10;2.28;;;;;;;;;;6305371;22;20055;-84
2020/12/29 01:06:03;;;;;;;4.05;1.85;;;;;;;;;;6305890;22;20041;-82
2020/12/29 01:08:29;;;;;;;2.47;1.30;;;;;;;;;;6305965;22;20015;-83
2020/12/29 01:10:56;;;;;;;3.00;1.52;;;;;;;;;;6306848;22;20110;-89
2020/12/29 01:13:25;;;;;;;3.10;1.45;;;;;;;;;;6305716;22;20073;-85
2020/12/29 01:15:51;;;;;;;2.87;1.40;;;;;;;;;;6306852;22;20094;-83
2020/12/29 01:18:18;;;;;;;3.67;1.95;;;;;;;;;;6306028;22;20236;-83
2020/12/29 01:20:44;;;;;;;3.70;1.23;;;;;;;;;;6306715;22;20019;-83
2020/12/29 01:23:11;;;;;;;2.67;1.30;;;;;;;;;;6305444;22;20102;-88
2020/12/29 01:25:39;;;;;;;2.65;1.40;;;;;;;;;;6305223;22;20086;-81
2020/12/29 01:28:05;;;;;;;3.35;1.30;;;;;;;;;;6305777;22;20351;-80
2020/12/29 01:30:31;;;;;;;3.08;1.30;;;;;;;;;;6304770;22;20094;-81
2020/12/29 01:32:57;;;;;;;2.78;1.77;;;;;;;;;;6305894;22;20039;-80
2020/12/29 01:35:23;;;;;;;3.30;1.27;;;;;;;;;;6305662;22;20021;-79
2020/12/29 01:37:49;;;;;;;3.15;1.60;;;;;;;;;;6305227;22;20383;-80
2020/12/29 01:40:15;;;;;;;4.70;1.20;;;;;;;;;;6304761;22;20094;-80
2020/12/29 01:42:41;;;;;;;2.47;1.20;;;;;;;;;;6305104;22;20026;-79
2020/12/29 01:45:11;;;;;;;4.65;1.55;;;;;;;;;;6303756;22;20090;-79
2020/12/29 01:47:37;;;;;;;4.43;1.75;;;;;;;;;;6304176;22;20034;-81
2020/12/29 01:50:14;;;;;;;2.42;1.40;;;;;;;;;;6305067;22;20099;-82
2020/12/29 01:52:40;;;;;;;4.70;1.55;;;;;;;;;;6301805;22;20110;-79
2020/12/29 01:55:07;;;;;;;2.97;1.48;;;;;;;;;;6304598;22;20025;-79
2020/12/29 01:57:34;;;;;;;2.95;1.60;;;;;;;;;;6306038;22;20015;-80
2020/12/29 02:00:03;;;;;;;2.65;1.23;;;;;;;;;;6305497;22;20106;-79
2020/12/29 02:02:29;;;;;;;1.80;1.02;;;;;;;;;;6305634;22;20029;-80
2020/12/29 02:04:56;;;;;;;3.85;1.20;;;;;;;;;;6305561;22;20027;-80
2020/12/29 02:07:22;;;;;;;2.80;1.15;;;;;;;;;;6304372;22;20023;-81
2020/12/29 02:09:48;;;;;;;5.10;2.35;;;;;;;;;;6305007;22;20029;-81
2020/12/29 02:12:34;;;;;;;3.42;1.70;;;;;;;;;;6304161;22;20067;-80
2020/12/29 02:15:01;;;;;;;4.05;1.33;;;;;;;;;;6305844;22;20034;-80
2020/12/29 02:17:29;;;;;;;4.07;1.52;;;;;;;;;;6305776;22;20265;-80
2020/12/29 02:19:55;;;;;;;3.72;1.30;;;;;;;;;;6305490;22;20093;-78
2020/12/29 02:22:22;;;;;;;3.45;1.00;;;;;;;;;;6304434;22;20094;-79
2020/12/29 02:24:49;;;;;;;4.10;1.77;;;;;;;;;;6305020;22;20529;-79
2020/12/29 02:27:15;;;;;;;3.17;1.20;;;;;;;;;;6304127;22;20023;-79
2020/12/29 02:29:41;;;;;;;3.83;1.30;;;;;;;;;;6304676;22;20342;-79
2020/12/29 02:32:07;;;;;;;3.60;1.20;;;;;;;;;;6305595;22;20047;-79
2020/12/29 02:34:37;;;;;;;2.97;1.65;;;;;;;;;;6304830;22;20073;-79
2020/12/29 02:37:06;;;;;;;4.65;1.40;;;;;;;;;;6304504;22;20113;-79
2020/12/29 02:39:34;;;;;;;1.35;0.73;;;;;;;;;;6304211;22;20102;-80
2020/12/29 02:42:00;;;;;;;3.67;0.75;;;;;;;;;;6304616;22;20106;-80
2020/12/29 02:44:26;;;;;;;2.78;1.02;;;;;;;;;;6277599;22;20047;-79
2020/12/29 02:46:52;;;;;;;3.88;1.20;;;;;;;;;;6304034;22;20057;-78
2020/12/29 02:49:18;;;;;;;4.22;1.40;;;;;;;;;;6304384;22;20463;-78
2020/12/29 02:51:45;;;;;;;1.38;1.00;;;;;;;;;;6305185;22;20324;-78
2020/12/29 02:54:12;;;;;;;3.05;1.23;;;;;;;;;;6305432;22;20019;-80
2020/12/29 02:56:38;;;;;;;2.33;1.25;;;;;;;;;;6304017;22;20090;-79
2020/12/29 02:59:04;;;;;;;2.60;0.98;;;;;;;;;;6305467;22;20026;-79
2020/12/29 03:01:30;;;;;;;1.55;1.15;;;;;;;;;;6305279;22;20027;-79
2020/12/29 03:03:56;;;;;;;3.08;1.23;;;;;;;;;;6305004;22;20347;-79
2020/12/29 03:06:23;;;;;;;4.32;1.40;;;;;;;;;;6303887;22;20403;-78
2020/12/29 03:08:49;;;;;;;2.92;1.23;;;;;;;;;;6304606;22;20015;-79
2020/12/29 03:11:22;;;;;;;2.58;1.30;;;;;;;;;;6303868;22;20447;-79
2020/12/29 03:13:48;;;;;;;3.08;1.25;;;;;;;;;;6304827;22;20027;-79
2020/12/29 03:16:14;;;;;;;2.65;1.30;;;;;;;;;;6304377;22;20015;-78
2020/12/29 03:18:40;;;;;;;1.85;1.08;;;;;;;;;;6302539;22;20029;-77
2020/12/29 03:21:06;;;;;;;2.13;1.00;;;;;;;;;;6304662;22;20099;-76
2020/12/29 03:23:32;;;;;;;3.35;1.20;;;;;;;;;;6303121;22;20015;-78
2020/12/29 03:25:58;;;;;;;2.67;1.00;;;;;;;;;;6303807;22;20094;-77
2020/12/29 03:28:25;;;;;;;3.88;1.00;;;;;;;;;;6302835;22;20047;-78
2020/12/29 03:30:51;;;;;;;3.20;1.35;;;;;;;;;;6304213;22;20027;-77
2020/12/29 03:33:17;;;;;;;2.03;0.90;;;;;;;;;;6302530;22;20061;-77
2020/12/29 03:35:43;;;;;;;2.28;0.90;;;;;;;;;;6304621;22;20383;-77
2020/12/29 03:38:09;;;;;;;1.95;1.00;;;;;;;;;;6303862;22;20095;-77
2020/12/29 03:40:36;;;;;;;2.05;1.40;;;;;;;;;;6304268;22;20034;-78
2020/12/29 03:43:02;;;;;;;2.97;1.42;;;;;;;;;;6302882;22;20507;-80
2020/12/29 03:45:28;;;;;;;2.53;0.95;;;;;;;;;;6303767;22;20487;-80
2020/12/29 03:47:54;;;;;;;2.85;1.20;;;;;;;;;;6304436;22;20022;-79
2020/12/29 03:50:20;;;;;;;1.52;0.95;;;;;;;;;;6303588;22;20420;-77
2020/12/29 03:52:46;;;;;;;1.77;1.17;;;;;;;;;;6304992;22;20100;-77
2020/12/29 03:55:13;;;;;;;2.55;1.08;;;;;;;;;;6303656;22;20094;-79
2020/12/29 03:57:39;;;;;;;2.55;0.80;;;;;;;;;;6305298;22;20015;-80
2020/12/29 04:00:06;;;;;;;2.72;1.25;;;;;;;;;;6305999;22;20023;-80
2020/12/29 04:02:32;;;;;;;2.03;1.00;;;;;;;;;;6307383;22;20392;-79
2020/12/29 04:04:59;;;;;;;1.50;0.80;;;;;;;;;;6306741;22;20080;-79
2020/12/29 04:07:25;;;;;;;3.00;1.17;;;;;;;;;;6303399;22;20098;-80
2020/12/29 04:09:51;;;;;;;1.23;1.02;;;;;;;;;;6305139;22;20029;-79
2020/12/29 04:12:17;;;;;;;1.85;0.90;;;;;;;;;;6306108;22;20094;-79
2020/12/29 04:14:43;;;;;;;1.92;0.85;;;;;;;;;;6307037;22;20407;-79
2020/12/29 04:17:09;;;;;;;1.70;1.10;;;;;;;;;;6306213;22;20090;-78
2020/12/29 04:19:35;;;;;;;5.10;1.02;;;;;;;;;;6305438;22;20019;-79
2020/12/29 04:22:01;;;;;;;1.83;0.75;;;;;;;;;;6305989;22;20463;-79
2020/12/29 04:24:27;;;;;;;1.92;0.88;;;;;;;;;;6306023;22;20015;-80
2020/12/29 04:26:53;;;;;;;1.58;0.98;;;;;;;;;;6306412;22;20506;-79
2020/12/29 04:29:19;;;;;;;2.47;1.20;;;;;;;;;;6305601;22;20019;-79
2020/12/29 04:31:49;;;;;;;1.58;0.82;;;;;;;;;;6306485;22;20077;-79
2020/12/29 04:34:15;;;;;;;0.77;0.63;;;;;;;;;;6305448;22;20090;-79
2020/12/29 04:36:41;;;;;;;1.55;0.60;;;;;;;;;;6305150;22;20549;-79
2020/12/29 04:39:07;;;;;;;1.23;0.70;;;;;;;;;;6306181;22;20086;-78
2020/12/29 04:41:33;;;;;;;1.33;0.70;;;;;;;;;;6306181;22;20027;-78
2020/12/29 04:43:59;;;;;;;1.40;0.85;;;;;;;;;;6306395;22;20506;-78
2020/12/29 04:46:26;;;;;;;0.68;0.68;;;;;;;;;;6303989;22;20023;-78
2020/12/29 04:48:52;;;;;;;3.45;0.88;;;;;;;;;;6306862;22;20022;-78
2020/12/29 04:51:18;;;;;;;1.95;1.13;;;;;;;;;;6306720;22;20094;-79
2020/12/29 04:53:57;;;;;;;1.15;0.65;;;;;;;;;;6306108;22;20051;-78
2020/12/29 04:56:31;;;;;;;1.30;0.80;;;;;;;;;;6278646;22;20376;-81
2020/12/29 04:59:00;;;;;;;3.13;0.88;;;;;;;;;;6306666;22;20466;-82
2020/12/29 05:01:30;;;;;;;1.83;0.80;;;;;;;;;;6305440;22;20051;-84
2020/12/29 05:03:59;;;;;;;1.77;0.75;;;;;;;;;;6304258;22;20051;-83
2020/12/29 05:06:25;;;;;;;1.58;0.88;;;;;;;;;;6305310;22;20095;-84
2020/12/29 05:08:53;;;;;;;3.45;0.95;;;;;;;;;;6304266;22;20058;-81
2020/12/29 05:11:20;;;;;;;1.15;0.50;;;;;;;;;;6303944;22;20094;-77
2020/12/29 05:13:46;;;;;;;1.20;0.88;;;;;;;;;;6304746;22;20094;-78
2020/12/29 05:16:13;;;;;;;2.38;0.68;;;;;;;;;;6305437;22;20401;-78
2020/12/29 05:18:39;;;;;;;1.80;0.70;;;;;;;;;;6305354;22;20015;-77
2020/12/29 05:21:05;;;;;;;1.55;0.70;;;;;;;;;;6304226;22;20030;-79
2020/12/29 05:23:32;;;;;;;2.22;0.77;;;;;;;;;;6304832;22;20098;-79
2020/12/29 05:25:58;;;;;;;2.83;0.70;;;;;;;;;;6305500;22;20033;-79
2020/12/29 05:28:24;;;;;;;2.25;1.10;;;;;;;;;;6304779;22;20098;-79
2020/12/29 05:30:54;;;;;;;2.20;0.88;;;;;;;;;;6306030;22;20023;-79
2020/12/29 05:33:24;;;;;;;2.70;0.70;;;;;;;;;;6260495;22;20028;-81
2020/12/29 05:35:51;;;;;;;1.67;0.73;;;;;;;;;;6241562;22;20542;-81
2020/12/29 05:38:18;;;;;;;0.63;0.45;;;;;;;;;;6243632;22;20479;-81
2020/12/29 05:40:46;;;;;;;0.85;0.50;;;;;;;;;;6244829;22;20400;-81
2020/12/29 05:43:12;;;;;;;1.90;0.82;;;;;;;;;;6243692;22;20401;-81
2020/12/29 05:45:39;;;;;;;1.17;0.70;;;;;;;;;;6244046;22;20522;-81
2020/12/29 05:48:05;;;;;;;1.65;0.70;;;;;;;;;;6242789;22;20348;-81
2020/12/29 05:50:32;;;;;;;1.42;0.60;;;;;;;;;;6243341;22;20376;-80
2020/12/29 05:52:59;;;;;;;2.42;0.68;;;;;;;;;;6243007;22;20022;-80
2020/12/29 05:55:25;;;;;;;1.77;0.65;;;;;;;;;;6243868;22;20103;-79
2020/12/29 05:57:59;;;;;;;0.70;0.50;;;;;;;;;;6243683;22;20099;-81
2020/12/29 06:00:26;;;;;;;1.15;0.50;;;;;;;;;;6242713;22;20352;-82
2020/12/29 06:02:56;;;;;;;2.88;0.57;;;;;;;;;;6243367;22;20107;-82
2020/12/29 06:05:23;;;;;;;1.35;0.70;;;;;;;;;;6240554;23;20054;-81
2020/12/29 06:07:53;;;;;;;1.48;1.05;;;;;;;;;;6243246;22;20027;-81
2020/12/29 06:10:20;;;;;;;2.80;0.65;;;;;;;;;;6243320;22;20048;-82
2020/12/29 06:12:55;;;;;;;2.40;0.80;;;;;;;;;;6242504;22;20595;-81
2020/12/29 06:15:29;;;;;;;1.60;0.57;;;;;;;;;;6241899;23;20102;-81
2020/12/29 06:17:59;;;;;;;1.42;0.60;;;;;;;;;;6239739;22;20135;-86
2020/12/29 06:20:33;;;;;;;7.95;1.48;;;;;;;;;;6238878;23;20111;-83
2020/12/29 06:23:00;;;;;;;2.30;0.68;;;;;;;;;;6239778;22;20030;-82
2020/12/29 06:25:29;;;;;;;2.03;0.80;;;;;;;;;;6240088;22;20017;-84
2020/12/29 06:27:58;;;;;;;1.45;0.85;;;;;;;;;;6238937;22;20103;-82
2020/12/29 06:30:24;;;;;;;2.92;0.93;;;;;;;;;;6238118;23;20046;-80
2020/12/29 06:32:52;;;;;;;2.80;0.73;;;;;;;;;;6240699;22;20095;-77
2020/12/29 06:35:19;;;;;;;1.60;0.73;;;;;;;;;;6241691;22;20040;-79
2020/12/29 06:37:50;;;;;;;1.58;0.80;;;;;;;;;;6240610;22;20343;-77
2020/12/29 06:40:17;;;;;;;1.60;1.20;;;;;;;;;;6241064;22;20103;-81
2020/12/29 06:42:44;;;;;;;1.77;0.95;;;;;;;;;;6240816;22;20028;-81
2020/12/29 06:45:11;;;;;;;1.83;0.90;;;;;;;;;;6238897;22;20020;-87
2020/12/29 06:47:42;;;;;;;2.40;1.40;;;;;;;;;;6239230;23;20032;-85
2020/12/29 06:50:28;;;;;;;2.20;1.27;;;;;;;;;;6240701;22;20095;-86
2020/12/29 06:53:01;;;;;;;2.47;1.60;;;;;;;;;;6240202;23;20055;-77
2020/12/29 06:55:46;;;;;;;4.20;2.03;;;;;;;;;;6242586;22;20444;-75
2020/12/29 06:58:27;;;;;;;4.25;1.60;;;;;;;;;;6240097;22;20352;-74
2020/12/29 07:01:13;;;;;;;1.80;1.30;;;;;;;;;;6240487;22;20020;-81
2020/12/29 07:03:42;;;;;;;2.78;1.52;;;;;;;;;;6239311;23;20103;-78
2020/12/29 07:06:08;;;;;;;3.17;1.80;;;;;;;;;;6241596;22;20052;-84
2020/12/29 07:08:36;;;;;;;4.13;1.77;;;;;;;;;;6241105;22;20030;-80
2020/12/29 07:11:15;;;;;;;5.88;2.25;;;;;;;;;;6241257;22;20536;-76
2020/12/29 07:13:41;;;;;;;2.73;1.60;;;;;;;;;;6242277;22;20102;-80
2020/12/29 07:16:11;;;;;;;4.80;2.45;;;;;;;;;;6241976;22;20352;-82
2020/12/29 07:18:42;;;;;;;6.35;2.28;;;;;;;;;;6240906;22;20028;-77
2020/12/29 07:21:21;;;;;;;3.92;2.10;;;;;;;;;;6242173;22;20020;-75
2020/12/29 07:23:50;;;;;;;8.27;3.07;;;;;;;;;;6240385;22;20099;-77
2020/12/29 07:26:29;;;;;;;7.60;1.83;;;;;;;;;;6243034;22;20348;-79
2020/12/29 07:28:56;;;;;;;9.00;2.58;;;;;;;;;;6242255;22;20490;-80
2020/12/29 07:31:23;;;;;;;7.53;2.40;;;;;;;;;;6242059;22;20026;-79
2020/12/29 07:33:52;;;;;;;7.35;1.95;;;;;;;;;;6240541;22;20019;-79
2020/12/29 07:36:18;;;;;;;4.70;2.27;;;;;;;;;;6243354;22;20024;-79
2020/12/29 08:09:22;;;;;;;10.35;4.25;;;;;;;;;;6202943;22;20109;-75
2020/12/29 08:11:48;;;;;;;16.15;5.07;;;;;;;;;;6190157;23;20035;-73
2020/12/29 08:14:15;;;;;;;12.50;5.18;;;;;;;;;;6163667;23;20334;-73
2020/12/29 08:16:43;;;;;;;15.10;5.65;;;;;;;;;;6188848;23;20024;-74
2020/12/29 08:19:10;;;;;;;14.73;5.82;;;;;;;;;;6191513;23;20027;-74
2020/12/29 08:21:39;;;;;;;14.27;5.15;;;;;;;;;;6191642;23;20056;-74
2020/12/29 08:24:08;;;;;;;13.15;5.85;;;;;;;;;;6191497;23;20035;-74
2020/12/29 08:26:34;;;;;;;13.98;5.85;;;;;;;;;;6191884;23;20036;-74
2020/12/29 08:29:01;;;;;;;15.85;6.45;;;;;;;;;;6191545;23;20025;-74
2020/12/29 08:31:28;;;;;;;15.80;7.35;;;;;;;;;;6165429;23;20100;-74
2020/12/29 08:33:54;;;;;;;18.92;6.10;;;;;;;;;;6191331;23;20020;-74
2020/12/29 08:36:25;;;;;;;13.30;6.47;;;;;;;;;;6190991;23;20064;-76
2020/12/29 08:39:18;;;;;;;15.57;6.78;;;;;;;;;;6191567;23;20398;-74
2020/12/29 08:41:49;;;;;;;18.55;7.43;;;;;;;;;;6143807;23;20071;-74
2020/12/29 08:44:16;;;;;;;17.40;7.18;;;;;;;;;;6190791;23;20053;-74
2020/12/29 08:46:42;;;;;;;14.85;6.38;;;;;;;;;;6191682;23;20023;-74
2020/12/29 08:49:08;;;;;;;14.45;7.15;;;;;;;;;;6190102;23;20071;-74
2020/12/29 08:51:42;;;;;;;11.77;5.75;;;;;;;;;;6191471;23;20326;-74
2020/12/29 08:54:14;;;;;;;13.63;5.70;;;;;;;;;;6191214;23;20027;-74
2020/12/29 08:56:41;;;;;;;18.50;6.93;;;;;;;;;;6190671;23;20039;-74
2020/12/29 08:59:07;;;;;;;12.35;5.78;;;;;;;;;;6189477;23;20020;-74
2020/12/29 09:01:35;;;;;;;18.15;6.30;;;;;;;;;;6189838;23;20020;-74
2020/12/29 09:04:24;;;;;;;16.50;7.60;;;;;;;;;;6164231;23;20056;-74
2020/12/29 09:07:06;;;;;;;15.90;5.57;;;;;;;;;;6189962;23;20348;-74
2020/12/29 09:09:34;;;;;;;11.05;5.65;;;;;;;;;;6155494;23;20018;-75
2020/12/29 09:12:10;;;;;;;14.25;6.07;;;;;;;;;;6152148;23;20029;-71
2020/12/29 09:14:37;;;;;;;9.88;4.95;;;;;;;;;;6155085;23;20523;-71
2020/12/29 09:17:06;;;;;;;16.58;5.60;;;;;;;;;;6154703;23;20096;-72
2020/12/29 09:19:34;;;;;;;13.95;5.55;;;;;;;;;;6153655;23;20061;-71
2020/12/29 09:22:07;;;;;;;12.88;5.55;;;;;;;;;;6154108;23;20022;-71
2020/12/29 09:24:33;;;;;;;8.73;4.65;;;;;;;;;;6154304;23;20029;-72
2020/12/29 09:26:59;;;;;;;11.05;4.55;;;;;;;;;;6154652;23;20021;-73
2020/12/29 09:29:27;;;;;;;9.80;4.28;;;;;;;;;;6153479;23;20049;-74
2020/12/29 09:31:55;;;;;;;10.93;5.35;;;;;;;;;;6154943;23;20071;-74
2020/12/29 09:34:22;;;;;;;10.57;4.85;;;;;;;;;;6154478;23;20056;-73
2020/12/29 09:36:49;;;;;;;9.45;4.25;;;;;;;;;;6153383;23;20096;-73
2020/12/29 09:39:15;;;;;;;10.75;5.22;;;;;;;;;;6153305;23;20480;-73
2020/12/29 09:41:41;;;;;;;10.05;3.75;;;;;;;;;;6154247;23;20096;-72
2020/12/29 09:44:07;;;;;;;7.55;4.15;;;;;;;;;;6154986;23;20408;-74
2020/12/29 09:46:37;;;;;;;7.60;4.00;;;;;;;;;;6154694;23;20378;-72
2020/12/29 09:49:03;;;;;;;8.45;4.43;;;;;;;;;;6153657;23;20394;-72
2020/12/29 09:51:29;;;;;;;7.72;3.92;;;;;;;;;;6153816;23;20063;-73
2020/12/29 09:53:55;;;;;;;8.75;4.45;;;;;;;;;;6153985;23;20025;-72
2020/12/29 09:56:22;;;;;;;7.75;4.20;;;;;;;;;;6154060;23;20477;-72
2020/12/29 09:58:48;;;;;;;9.68;4.32;;;;;;;;;;6151362;23;20064;-73
2020/12/29 10:01:15;;;;;;;8.18;3.40;;;;;;;;;;6154260;23;20024;-73
2020/12/29 10:03:41;;;;;;;7.80;4.10;;;;;;;;;;6154291;23;20025;-72
2020/12/29 10:06:13;;;;;;;7.03;3.55;;;;;;;;;;6154434;23;20096;-72
2020/12/29 10:08:42;;;;;;;7.25;3.33;;;;;;;;;;6174505;23;20021;-72
2020/12/29 10:11:10;;;;;;;9.52;3.35;;;;;;;;;;6183518;23;20021;-72
2020/12/29 10:13:36;;;;;;;7.13;3.97;;;;;;;;;;6184147;23;20044;-72
2020/12/29 10:16:02;;;;;;;7.13;3.10;;;;;;;;;;6183689;23;20344;-72
2020/12/29 10:18:29;;;;;;;6.25;3.25;;;;;;;;;;6182653;23;20197;-73
2020/12/29 10:20:56;;;;;;;5.43;3.35;;;;;;;;;;6183076;23;20024;-73
2020/12/29 10:23:22;;;;;;;6.53;3.10;;;;;;;;;;6183800;23;20475;-74
2020/12/29 10:25:49;;;;;;;5.82;3.03;;;;;;;;;;6183532;23;20021;-73
2020/12/29 10:28:16;;;;;;;5.78;3.35;;;;;;;;;;6183193;23;20060;-73
2020/12/29 10:30:42;;;;;;;5.15;3.25;;;;;;;;;;6182415;23;20075;-72
2020/12/29 10:33:09;;;;;;;5.60;2.58;;;;;;;;;;6183182;23;20021;-72
2020/12/29 10:35:35;;;;;;;6.53;2.83;;;;;;;;;;6183359;23;20017;-72
2020/12/29 10:38:02;;;;;;;6.70;2.97;;;;;;;;;;6183500;23;20104;-71
2020/12/29 10:40:28;;;;;;;5.55;3.00;;;;;;;;;;6156591;23;20027;-77
2020/12/29 10:42:54;;;;;;;7.68;3.40;;;;;;;;;;6157573;23;20021;-75
2020/12/29 10:45:20;;;;;;;6.15;2.97;;;;;;;;;;6183184;23;20461;-74
2020/12/29 10:47:46;;;;;;;6.32;2.95;;;;;;;;;;6183771;23;20027;-76
2020/12/29 10:50:12;;;;;;;4.90;2.60;;;;;;;;;;6183897;23;20033;-77
2020/12/29 10:52:38;;;;;;;5.88;3.22;;;;;;;;;;6156576;23;20453;-77
2020/12/29 10:55:04;;;;;;;8.40;3.35;;;;;;;;;;6182641;23;20021;-77
2020/12/29 10:57:37;;;;;;;5.68;3.42;;;;;;;;;;6182432;23;20021;-73
2020/12/29 11:00:03;;;;;;;4.30;2.30;;;;;;;;;;6182867;23;20023;-72
2020/12/29 11:02:30;;;;;;;5.78;2.20;;;;;;;;;;6155624;23;20021;-72
2020/12/29 11:04:56;;;;;;;5.68;2.72;;;;;;;;;;6182266;23;20024;-72
2020/12/29 11:07:22;;;;;;;6.47;2.85;;;;;;;;;;6179968;23;20426;-71
2020/12/29 11:09:48;;;;;;;6.68;2.35;;;;;;;;;;6181155;23;20032;-72
2020/12/29 11:12:18;;;;;;;4.05;2.05;;;;;;;;;;6181095;23;20056;-72
2020/12/29 11:14:44;;;;;;;4.55;2.17;;;;;;;;;;6181679;23;20025;-72
2020/12/29 11:17:10;;;;;;;4.05;2.03;;;;;;;;;;6182203;23;20100;-71
2020/12/29 11:19:45;;;;;;;4.15;1.92;;;;;;;;;;6181661;23;20079;-72
2020/12/29 11:22:11;;;;;;;4.18;2.10;;;;;;;;;;6181428;23;20025;-72
2020/12/29 11:24:37;;;;;;;4.13;2.40;;;;;;;;;;6182272;23;20079;-72
2020/12/29 11:27:03;;;;;;;5.70;1.92;;;;;;;;;;6180973;23;20108;-72
2020/12/29 11:29:30;;;;;;;7.90;2.67;;;;;;;;;;6181475;23;20132;-73
2020/12/29 11:31:56;;;;;;;3.42;1.88;;;;;;;;;;6181819;23;20020;-72
2020/12/29 11:34:22;;;;;;;5.20;2.10;;;;;;;;;;6181546;23;20392;-73
2020/12/29 11:36:51;;;;;;;4.18;2.15;;;;;;;;;;6181435;23;20087;-73
2020/12/29 11:39:17;;;;;;;4.75;2.28;;;;;;;;;;6181672;23;20332;-73
2020/12/29 11:41:43;;;;;;;3.95;1.88;;;;;;;;;;6181789;23;20540;-73
2020/12/29 11:44:09;;;;;;;3.00;1.90;;;;;;;;;;6181384;23;20081;-73
2020/12/29 11:46:35;;;;;;;3.53;2.10;;;;;;;;;;6180797;23;20020;-73
2020/12/29 11:49:01;;;;;;;3.08;1.67;;;;;;;;;;6182542;23;20080;-72
2020/12/29 11:51:28;;;;;;;2.80;1.52;;;;;;;;;;6181412;23;20025;-73
2020/12/29 11:53:54;;;;;;;3.88;1.80;;;;;;;;;;6182212;23;20556;-72
2020/12/29 11:56:22;;;;;;;3.80;1.75;;;;;;;;;;6181535;23;20111;-73
2020/12/29 11:58:49;;;;;;;3.28;1.48;;;;;;;;;;6182135;23;20104;-73
2020/12/29 12:01:15;;;;;;;2.42;1.35;;;;;;;;;;6182142;23;20116;-72
2020/12/29 12:03:41;;;;;;;3.67;1.65;;;;;;;;;;6182096;23;20033;-71
2020/12/29 12:06:07;;;;;;;4.40;1.88;;;;;;;;;;6180059;23;20033;-72
2020/12/29 12:08:33;;;;;;;2.10;1.27;;;;;;;;;;6181348;23;20045;-73
2020/12/29 12:10:59;;;;;;;2.75;1.50;;;;;;;;;;6154944;23;20025;-72
2020/12/29 12:13:25;;;;;;;3.58;1.52;;;;;;;;;;6181631;23;20017;-71
2020/12/29 12:15:54;;;;;;;4.10;1.85;;;;;;;;;;6181531;23;20029;-73
2020/12/29 12:18:34;;;;;;;3.15;1.60;;;;;;;;;;6181080;23;20029;-72
2020/12/29 12:21:11;;;;;;;3.40;1.80;;;;;;;;;;6180846;23;20021;-73
2020/12/29 12:23:40;;;;;;;3.70;1.90;;;;;;;;;;6156201;23;20025;-72
2020/12/29 12:26:06;;;;;;;3.20;1.75;;;;;;;;;;6180670;23;20512;-72
2020/12/29 12:28:33;;;;;;;2.72;1.30;;;;;;;;;;6180839;23;20092;-72
2020/12/29 12:31:00;;;;;;;3.47;1.88;;;;;;;;;;6154908;23;20017;-72
2020/12/29 12:33:26;;;;;;;2.58;1.50;;;;;;;;;;6180573;23;20473;-73
2020/12/29 12:35:54;;;;;;;4.30;1.67;;;;;;;;;;6181922;23;20389;-73
2020/12/29 12:38:20;;;;;;;3.13;1.70;;;;;;;;;;6181906;23;20035;-73
2020/12/29 12:40:46;;;;;;;2.95;1.25;;;;;;;;;;6180963;23;20552;-73
2020/12/29 12:43:15;;;;;;;5.35;1.90;;;;;;;;;;6181535;23;20028;-72
2020/12/29 12:45:44;;;;;;;4.22;1.65;;;;;;;;;;6183273;23;20023;-73
2020/12/29 12:48:10;;;;;;;2.33;1.50;;;;;;;;;;6183073;23;20027;-73
2020/12/29 12:50:36;;;;;;;2.17;1.15;;;;;;;;;;6183036;23;20051;-72
2020/12/29 12:53:06;;;;;;;2.95;1.75;;;;;;;;;;6183198;23;20079;-72
2020/12/29 12:55:35;;;;;;;2.75;1.48;;;;;;;;;;6183457;23;20017;-73
2020/12/29 12:58:01;;;;;;;2.53;1.35;;;;;;;;;;6182877;23;20099;-72
2020/12/29 13:00:28;;;;;;;2.97;1.40;;;;;;;;;;6183037;23;20021;-73
2020/12/29 13:02:54;;;;;;;3.00;1.20;;;;;;;;;;6182567;23;20108;-73
2020/12/29 13:05:20;;;;;;;1.92;1.27;;;;;;;;;;6183084;23;20075;-72
2020/12/29 13:07:50;;;;;;;;;;;;;;;;;;6182852;23;20457;-72
2020/12/29 13:10:17;;;;;;;2.10;1.15;;;;;;;;;;6183383;23;19999;-73
2020/12/29 13:12:43;;;;;;;2.67;1.50;;;;;;;;;;6182593;23;20021;-72
2020/12/29 13:15:10;;;;;;;3.67;1.40;;;;;;;;;;6182953;23;20029;-72
2020/12/29 13:17:36;;;;;;;4.78;1.40;;;;;;;;;;6182551;23;20025;-72
2020/12/29 13:20:03;;;;;;;2.78;1.25;;;;;;;;;;6182391;23;20388;-72
2020/12/29 13:22:30;;;;;;;1.55;1.00;;;;;;;;;;6183577;23;20025;-72
2020/12/29 13:24:56;;;;;;;1.60;1.00;;;;;;;;;;6183531;23;20031;-72
2020/12/29 13:27:24;;;;;;;2.42;1.23;;;;;;;;;;6182673;23;20453;-73
2020/12/29 13:29:50;;;;;;;2.65;1.20;;;;;;;;;;6183559;23;20029;-73
2020/12/29 13:32:17;;;;;;;1.92;1.00;;;;;;;;;;6182549;23;20028;-72
2020/12/29 13:34:44;;;;;;;3.50;1.33;;;;;;;;;;6157492;23;20075;-72
2020/12/29 13:37:10;;;;;;;2.03;1.10;;;;;;;;;;6182240;23;20069;-72
2020/12/29 13:39:36;;;;;;;2.53;1.05;;;;;;;;;;6156889;23;20103;-71
2020/12/29 13:42:03;;;;;;;1.88;1.00;;;;;;;;;;6157323;23;20017;-72
2020/12/29 13:44:30;;;;;;;2.63;1.30;;;;;;;;;;6183780;23;20096;-73
2020/12/29 13:46:57;;;;;;;2.38;1.40;;;;;;;;;;6182293;23;20018;-72
2020/12/29 13:49:23;;;;;;;1.52;0.93;;;;;;;;;;6156206;23;20167;-73
2020/12/29 13:51:51;;;;;;;2.47;1.17;;;;;;;;;;6182741;23;20029;-73
2020/12/29 13:54:19;;;;;;;2.17;1.23;;;;;;;;;;6182456;23;20403;-73
2020/12/29 13:56:45;;;;;;;2.72;1.15;;;;;;;;;;6182601;23;20080;-73
2020/12/29 13:59:11;;;;;;;2.30;1.10;;;;;;;;;;6182406;23;20100;-73
2020/12/29 14:01:38;;;;;;;3.40;1.60;;;;;;;;;;6183553;23;20025;-72
2020/12/29 14:04:04;;;;;;;2.97;1.00;;;;;;;;;;6182527;23;20099;-72
2020/12/29 14:06:30;;;;;;;2.95;1.40;;;;;;;;;;6183300;23;20345;-73
2020/12/29 14:08:56;;;;;;;2.50;1.13;;;;;;;;;;6156657;23;20096;-72
2020/12/29 14:11:22;;;;;;;2.35;1.20;;;;;;;;;;6182678;23;20051;-71
2020/12/29 14:13:48;;;;;;;2.30;1.20;;;;;;;;;;6183185;23;20099;-72
2020/12/29 14:16:15;;;;;;;2.28;1.20;;;;;;;;;;6181951;23;20017;-73
2020/12/29 14:18:41;;;;;;;3.55;1.27;;;;;;;;;;6182881;23;20421;-72
2020/12/29 14:21:10;;;;;;;3.28;1.23;;;;;;;;;;6181735;23;20504;-73
2020/12/29 14:23:36;;;;;;;2.58;1.05;;;;;;;;;;6182819;23;20130;-73
2020/12/29 14:26:02;;;;;;;1.95;1.00;;;;;;;;;;6183102;23;20096;-73
2020/12/29 14:28:45;;;;;;;2.92;1.00;;;;;;;;;;6182007;23;20021;-73
2020/12/29 14:31:12;;;;;;;3.35;1.15;;;;;;;;;;6181841;23;20491;-73
2020/12/29 14:33:38;;;;;;;2.95;1.05;;;;;;;;;;6181162;23;20017;-72
2020/12/29 14:36:04;;;;;;;3.47;1.27;;;;;;;;;;6182413;23;20028;-73
2020/12/29 14:38:30;;;;;;;2.67;1.33;;;;;;;;;;6182031;23;20053;-75
2020/12/29 14:40:58;;;;;;;2.40;1.20;;;;;;;;;;6182092;23;20405;-78
2020/12/29 14:43:24;;;;;;;2.22;1.30;;;;;;;;;;6182440;23;20091;-75
2020/12/29 14:45:52;;;;;;;3.65;1.40;;;;;;;;;;6182429;23;20095;-73
2020/12/29 14:48:18;;;;;;;1.80;1.00;;;;;;;;;;6182592;23;20017;-74
2020/12/29 14:50:44;;;;;;;2.03;1.33;;;;;;;;;;6156103;23;20103;-74
2020/12/29 14:53:11;;;;;;;1.27;0.85;;;;;;;;;;6181699;23;20096;-77
2020/12/29 14:55:38;;;;;;;2.22;0.90;;;;;;;;;;6181313;23;20060;-80
2020/12/29 14:58:05;;;;;;;2.75;0.90;;;;;;;;;;6180789;23;20100;-77
2020/12/29 15:00:31;;;;;;;1.30;0.73;;;;;;;;;;6181811;23;20072;-77
2020/12/29 15:02:57;;;;;;;1.40;0.80;;;;;;;;;;6181788;23;20060;-73
2020/12/29 15:05:23;;;;;;;1.88;1.00;;;;;;;;;;6181440;23;20024;-74
2020/12/29 15:07:49;;;;;;;2.22;0.85;;;;;;;;;;6181402;23;20029;-74
2020/12/29 15:10:15;;;;;;;1.90;1.10;;;;;;;;;;6182336;23;20122;-73
2020/12/29 15:12:41;;;;;;;1.42;0.90;;;;;;;;;;6180532;23;20060;-75
2020/12/29 15:15:07;;;;;;;2.30;1.02;;;;;;;;;;6181917;23;20112;-74
2020/12/29 15:17:34;;;;;;;1.25;0.77;;;;;;;;;;6180721;23;20344;-74